sensor_id;sensor_type;location;lat;lon;timestamp;P1;durP1;ratioP1;P2;durP2;ratioP2
52586;SDS011;38480;52.724;6.436;2023-04-24T00:00:50;5.77;;;4.30;;
52586;SDS011;38480;52.724;6.436;2023-04-24T00:03:16;6.20;;;4.03;;
52586;SDS011;38480;52.724;6.436;2023-04-24T00:05:45;6.50;;;4.67;;
52586;SDS011;38480;52.724;6.436;2023-04-24T00:08:12;7.80;;;5.03;;
52586;SDS011;38480;52.724;6.436;2023-04-24T00:10:38;7.10;;;4.83;;
52586;SDS011;38480;52.724;6.436;2023-04-24T00:13:04;6.40;;;4.37;;
52586;SDS011;38480;52.724;6.436;2023-04-24T00:15:30;7.63;;;5.07;;
52586;SDS011;38480;52.724;6.436;2023-04-24T00:17:56;8.87;;;5.87;;
52586;SDS011;38480;52.724;6.436;2023-04-24T00:20:22;6.33;;;4.90;;
52586;SDS011;38480;52.724;6.436;2023-04-24T00:22:48;6.40;;;5.17;;
52586;SDS011;38480;52.724;6.436;2023-04-24T00:25:14;8.13;;;5.20;;
52586;SDS011;38480;52.724;6.436;2023-04-24T00:27:41;8.03;;;6.00;;
52586;SDS011;38480;52.724;6.436;2023-04-24T00:30:07;7.03;;;5.87;;
52586;SDS011;38480;52.724;6.436;2023-04-24T00:32:33;8.20;;;6.30;;
52586;SDS011;38480;52.724;6.436;2023-04-24T00:34:59;9.00;;;6.40;;
52586;SDS011;38480;52.724;6.436;2023-04-24T00:37:25;12.27;;;6.70;;
52586;SDS011;38480;52.724;6.436;2023-04-24T00:39:51;11.00;;;7.50;;
52586;SDS011;38480;52.724;6.436;2023-04-24T00:42:17;13.87;;;7.50;;
52586;SDS011;38480;52.724;6.436;2023-04-24T00:44:43;12.40;;;8.07;;
52586;SDS011;38480;52.724;6.436;2023-04-24T00:47:10;11.23;;;8.03;;
52586;SDS011;38480;52.724;6.436;2023-04-24T00:49:36;14.17;;;7.90;;
52586;SDS011;38480;52.724;6.436;2023-04-24T00:52:02;11.73;;;8.90;;
52586;SDS011;38480;52.724;6.436;2023-04-24T00:54:32;11.53;;;7.67;;
52586;SDS011;38480;52.724;6.436;2023-04-24T00:56:58;14.90;;;8.73;;
52586;SDS011;38480;52.724;6.436;2023-04-24T00:59:26;11.13;;;8.43;;
52586;SDS011;38480;52.724;6.436;2023-04-24T01:01:52;12.17;;;8.13;;
52586;SDS011;38480;52.724;6.436;2023-04-24T01:04:18;10.30;;;7.13;;
52586;SDS011;38480;52.724;6.436;2023-04-24T01:06:45;10.60;;;7.00;;
52586;SDS011;38480;52.724;6.436;2023-04-24T01:09:11;10.50;;;7.27;;
52586;SDS011;38480;52.724;6.436;2023-04-24T01:11:38;10.53;;;6.93;;
52586;SDS011;38480;52.724;6.436;2023-04-24T01:14:05;8.73;;;7.27;;
52586;SDS011;38480;52.724;6.436;2023-04-24T01:16:31;10.43;;;8.33;;
52586;SDS011;38480;52.724;6.436;2023-04-24T01:18:58;9.93;;;8.47;;
52586;SDS011;38480;52.724;6.436;2023-04-24T01:21:25;9.50;;;8.50;;
52586;SDS011;38480;52.724;6.436;2023-04-24T01:23:55;14.53;;;9.67;;
52586;SDS011;38480;52.724;6.436;2023-04-24T01:26:21;9.83;;;8.83;;
52586;SDS011;38480;52.724;6.436;2023-04-24T01:28:48;9.47;;;8.47;;
52586;SDS011;38480;52.724;6.436;2023-04-24T01:31:14;9.70;;;8.77;;
52586;SDS011;38480;52.724;6.436;2023-04-24T01:33:41;11.17;;;9.03;;
52586;SDS011;38480;52.724;6.436;2023-04-24T01:36:07;9.63;;;8.73;;
52586;SDS011;38480;52.724;6.436;2023-04-24T01:38:34;10.93;;;8.37;;
52586;SDS011;38480;52.724;6.436;2023-04-24T01:41:00;9.20;;;8.07;;
52586;SDS011;38480;52.724;6.436;2023-04-24T01:43:26;9.03;;;8.13;;
52586;SDS011;38480;52.724;6.436;2023-04-24T01:45:52;8.93;;;8.07;;
52586;SDS011;38480;52.724;6.436;2023-04-24T01:48:18;9.33;;;8.30;;
52586;SDS011;38480;52.724;6.436;2023-04-24T01:50:44;10.30;;;8.67;;
52586;SDS011;38480;52.724;6.436;2023-04-24T01:53:11;10.73;;;8.77;;
52586;SDS011;38480;52.724;6.436;2023-04-24T01:55:37;8.97;;;8.07;;
52586;SDS011;38480;52.724;6.436;2023-04-24T01:58:03;9.87;;;7.97;;
52586;SDS011;38480;52.724;6.436;2023-04-24T02:00:29;10.13;;;8.83;;
52586;SDS011;38480;52.724;6.436;2023-04-24T02:02:55;11.60;;;9.00;;
52586;SDS011;38480;52.724;6.436;2023-04-24T02:05:21;10.53;;;8.70;;
52586;SDS011;38480;52.724;6.436;2023-04-24T02:07:47;10.03;;;9.03;;
52586;SDS011;38480;52.724;6.436;2023-04-24T02:10:13;10.13;;;9.00;;
52586;SDS011;38480;52.724;6.436;2023-04-24T02:12:39;11.37;;;9.10;;
52586;SDS011;38480;52.724;6.436;2023-04-24T02:15:05;12.33;;;8.87;;
52586;SDS011;38480;52.724;6.436;2023-04-24T02:17:31;9.43;;;8.43;;
52586;SDS011;38480;52.724;6.436;2023-04-24T02:19:57;11.90;;;9.60;;
52586;SDS011;38480;52.724;6.436;2023-04-24T02:22:23;11.30;;;8.93;;
52586;SDS011;38480;52.724;6.436;2023-04-24T02:24:50;9.73;;;8.73;;
52586;SDS011;38480;52.724;6.436;2023-04-24T02:27:16;11.23;;;8.87;;
52586;SDS011;38480;52.724;6.436;2023-04-24T02:29:42;12.03;;;9.43;;
52586;SDS011;38480;52.724;6.436;2023-04-24T02:32:08;9.70;;;8.70;;
52586;SDS011;38480;52.724;6.436;2023-04-24T02:34:36;9.73;;;8.53;;
52586;SDS011;38480;52.724;6.436;2023-04-24T02:37:02;10.30;;;9.07;;
52586;SDS011;38480;52.724;6.436;2023-04-24T02:39:28;9.80;;;8.57;;
52586;SDS011;38480;52.724;6.436;2023-04-24T02:41:54;10.10;;;8.43;;
52586;SDS011;38480;52.724;6.436;2023-04-24T02:44:20;9.77;;;8.77;;
52586;SDS011;38480;52.724;6.436;2023-04-24T02:46:47;11.53;;;10.33;;
52586;SDS011;38480;52.724;6.436;2023-04-24T02:49:13;12.13;;;10.03;;
52586;SDS011;38480;52.724;6.436;2023-04-24T02:51:40;10.83;;;9.30;;
52586;SDS011;38480;52.724;6.436;2023-04-24T02:54:07;11.70;;;10.37;;
52586;SDS011;38480;52.724;6.436;2023-04-24T02:56:34;11.43;;;10.20;;
52586;SDS011;38480;52.724;6.436;2023-04-24T02:59:00;12.07;;;9.70;;
52586;SDS011;38480;52.724;6.436;2023-04-24T03:01:26;12.67;;;10.40;;
52586;SDS011;38480;52.724;6.436;2023-04-24T03:03:52;11.80;;;10.10;;
52586;SDS011;38480;52.724;6.436;2023-04-24T03:06:18;11.10;;;9.77;;
52586;SDS011;38480;52.724;6.436;2023-04-24T03:08:46;14.63;;;11.10;;
52586;SDS011;38480;52.724;6.436;2023-04-24T03:11:12;9.80;;;8.80;;
52586;SDS011;38480;52.724;6.436;2023-04-24T03:13:38;12.97;;;10.30;;
52586;SDS011;38480;52.724;6.436;2023-04-24T03:16:04;13.70;;;9.50;;
52586;SDS011;38480;52.724;6.436;2023-04-24T03:18:30;8.70;;;7.83;;
52586;SDS011;38480;52.724;6.436;2023-04-24T03:20:56;9.87;;;8.43;;
52586;SDS011;38480;52.724;6.436;2023-04-24T03:23:23;6.97;;;6.27;;
52586;SDS011;38480;52.724;6.436;2023-04-24T03:25:49;9.90;;;7.13;;
52586;SDS011;38480;52.724;6.436;2023-04-24T03:28:15;10.70;;;7.97;;
52586;SDS011;38480;52.724;6.436;2023-04-24T03:30:41;10.17;;;7.53;;
52586;SDS011;38480;52.724;6.436;2023-04-24T03:33:07;9.97;;;8.33;;
52586;SDS011;38480;52.724;6.436;2023-04-24T03:35:33;11.50;;;8.13;;
52586;SDS011;38480;52.724;6.436;2023-04-24T03:37:59;8.83;;;6.83;;
52586;SDS011;38480;52.724;6.436;2023-04-24T03:40:25;8.70;;;6.80;;
52586;SDS011;38480;52.724;6.436;2023-04-24T03:42:51;7.53;;;5.33;;
52586;SDS011;38480;52.724;6.436;2023-04-24T03:45:17;7.03;;;5.90;;
52586;SDS011;38480;52.724;6.436;2023-04-24T03:47:43;7.30;;;5.37;;
52586;SDS011;38480;52.724;6.436;2023-04-24T03:50:10;6.13;;;4.10;;
52586;SDS011;38480;52.724;6.436;2023-04-24T03:52:36;5.43;;;4.37;;
52586;SDS011;38480;52.724;6.436;2023-04-24T03:55:02;6.77;;;4.70;;
52586;SDS011;38480;52.724;6.436;2023-04-24T03:57:28;4.20;;;3.40;;
52586;SDS011;38480;52.724;6.436;2023-04-24T03:59:54;5.10;;;3.87;;
52586;SDS011;38480;52.724;6.436;2023-04-24T04:02:20;8.20;;;6.43;;
52586;SDS011;38480;52.724;6.436;2023-04-24T04:04:46;12.20;;;8.60;;
52586;SDS011;38480;52.724;6.436;2023-04-24T04:07:12;14.57;;;9.03;;
52586;SDS011;38480;52.724;6.436;2023-04-24T04:09:38;15.77;;;9.20;;
52586;SDS011;38480;52.724;6.436;2023-04-24T04:12:04;14.63;;;8.77;;
52586;SDS011;38480;52.724;6.436;2023-04-24T04:14:30;12.57;;;7.80;;
52586;SDS011;38480;52.724;6.436;2023-04-24T04:16:56;13.97;;;9.10;;
52586;SDS011;38480;52.724;6.436;2023-04-24T04:19:22;14.97;;;9.70;;
52586;SDS011;38480;52.724;6.436;2023-04-24T04:21:48;15.27;;;10.00;;
52586;SDS011;38480;52.724;6.436;2023-04-24T04:24:18;18.03;;;9.77;;
52586;SDS011;38480;52.724;6.436;2023-04-24T04:26:45;11.77;;;8.23;;
52586;SDS011;38480;52.724;6.436;2023-04-24T04:29:12;13.93;;;7.90;;
52586;SDS011;38480;52.724;6.436;2023-04-24T04:31:38;12.43;;;7.47;;
52586;SDS011;38480;52.724;6.436;2023-04-24T04:34:04;11.23;;;7.20;;
52586;SDS011;38480;52.724;6.436;2023-04-24T04:36:30;15.40;;;8.17;;
52586;SDS011;38480;52.724;6.436;2023-04-24T04:38:57;10.20;;;6.30;;
52586;SDS011;38480;52.724;6.436;2023-04-24T04:41:24;8.40;;;5.30;;
52586;SDS011;38480;52.724;6.436;2023-04-24T04:43:51;8.97;;;5.70;;
52586;SDS011;38480;52.724;6.436;2023-04-24T04:46:17;7.37;;;5.27;;
52586;SDS011;38480;52.724;6.436;2023-04-24T04:48:43;7.13;;;4.27;;
52586;SDS011;38480;52.724;6.436;2023-04-24T04:51:10;6.60;;;4.57;;
52586;SDS011;38480;52.724;6.436;2023-04-24T04:53:36;8.40;;;5.43;;
52586;SDS011;38480;52.724;6.436;2023-04-24T04:56:02;8.30;;;4.87;;
52586;SDS011;38480;52.724;6.436;2023-04-24T04:58:29;7.73;;;6.07;;
52586;SDS011;38480;52.724;6.436;2023-04-24T05:00:55;9.73;;;5.40;;
52586;SDS011;38480;52.724;6.436;2023-04-24T05:03:22;10.57;;;6.00;;
52586;SDS011;38480;52.724;6.436;2023-04-24T05:05:48;9.23;;;5.90;;
52586;SDS011;38480;52.724;6.436;2023-04-24T05:08:14;11.33;;;6.50;;
52586;SDS011;38480;52.724;6.436;2023-04-24T05:10:40;13.43;;;7.23;;
52586;SDS011;38480;52.724;6.436;2023-04-24T05:13:06;15.47;;;7.07;;
52586;SDS011;38480;52.724;6.436;2023-04-24T05:15:32;9.17;;;5.27;;
52586;SDS011;38480;52.724;6.436;2023-04-24T05:17:58;7.73;;;4.80;;
52586;SDS011;38480;52.724;6.436;2023-04-24T05:20:24;11.13;;;6.10;;
52586;SDS011;38480;52.724;6.436;2023-04-24T05:22:50;8.50;;;5.70;;
52586;SDS011;38480;52.724;6.436;2023-04-24T05:25:16;12.63;;;6.93;;
52586;SDS011;38480;52.724;6.436;2023-04-24T05:27:43;18.17;;;8.13;;
52586;SDS011;38480;52.724;6.436;2023-04-24T05:30:09;17.37;;;7.97;;
52586;SDS011;38480;52.724;6.436;2023-04-24T05:32:35;19.63;;;8.00;;
52586;SDS011;38480;52.724;6.436;2023-04-24T05:35:01;21.00;;;8.53;;
52586;SDS011;38480;52.724;6.436;2023-04-24T05:37:27;11.30;;;6.60;;
52586;SDS011;38480;52.724;6.436;2023-04-24T05:39:53;17.97;;;7.27;;
52586;SDS011;38480;52.724;6.436;2023-04-24T05:42:19;9.20;;;4.93;;
52586;SDS011;38480;52.724;6.436;2023-04-24T05:44:45;13.73;;;5.53;;
52586;SDS011;38480;52.724;6.436;2023-04-24T05:47:11;11.20;;;5.53;;
52586;SDS011;38480;52.724;6.436;2023-04-24T05:49:37;18.27;;;5.33;;
52586;SDS011;38480;52.724;6.436;2023-04-24T05:52:03;15.37;;;6.03;;
52586;SDS011;38480;52.724;6.436;2023-04-24T05:54:31;15.63;;;6.63;;
52586;SDS011;38480;52.724;6.436;2023-04-24T05:56:57;21.00;;;7.93;;
52586;SDS011;38480;52.724;6.436;2023-04-24T05:59:23;14.10;;;7.07;;
52586;SDS011;38480;52.724;6.436;2023-04-24T06:01:49;29.13;;;9.00;;
52586;SDS011;38480;52.724;6.436;2023-04-24T06:04:15;28.50;;;9.40;;
52586;SDS011;38480;52.724;6.436;2023-04-24T06:06:41;121.70;;;24.23;;
52586;SDS011;38480;52.724;6.436;2023-04-24T06:09:07;25.23;;;9.43;;
52586;SDS011;38480;52.724;6.436;2023-04-24T06:11:34;19.63;;;8.80;;
52586;SDS011;38480;52.724;6.436;2023-04-24T06:14:00;27.93;;;11.40;;
52586;SDS011;38480;52.724;6.436;2023-04-24T06:16:26;20.27;;;10.30;;
52586;SDS011;38480;52.724;6.436;2023-04-24T06:18:52;20.27;;;8.97;;
52586;SDS011;38480;52.724;6.436;2023-04-24T06:21:18;34.93;;;10.97;;
52586;SDS011;38480;52.724;6.436;2023-04-24T06:23:44;24.00;;;8.30;;
52586;SDS011;38480;52.724;6.436;2023-04-24T06:26:12;22.57;;;7.47;;
52586;SDS011;38480;52.724;6.436;2023-04-24T06:28:38;24.60;;;8.53;;
52586;SDS011;38480;52.724;6.436;2023-04-24T06:31:04;46.87;;;10.57;;
52586;SDS011;38480;52.724;6.436;2023-04-24T06:33:30;41.17;;;10.80;;
52586;SDS011;38480;52.724;6.436;2023-04-24T06:35:56;43.30;;;11.20;;
52586;SDS011;38480;52.724;6.436;2023-04-24T06:38:22;21.27;;;8.83;;
52586;SDS011;38480;52.724;6.436;2023-04-24T06:40:48;26.37;;;10.37;;
52586;SDS011;38480;52.724;6.436;2023-04-24T06:43:14;41.00;;;11.30;;
52586;SDS011;38480;52.724;6.436;2023-04-24T06:45:41;33.63;;;11.60;;
52586;SDS011;38480;52.724;6.436;2023-04-24T06:48:08;37.30;;;10.50;;
52586;SDS011;38480;52.724;6.436;2023-04-24T06:50:34;31.23;;;9.17;;
52586;SDS011;38480;52.724;6.436;2023-04-24T06:53:01;24.77;;;11.10;;
52586;SDS011;38480;52.724;6.436;2023-04-24T06:55:27;28.27;;;10.93;;
52586;SDS011;38480;52.724;6.436;2023-04-24T06:57:53;22.03;;;8.97;;
52586;SDS011;38480;52.724;6.436;2023-04-24T07:00:19;15.27;;;6.90;;
52586;SDS011;38480;52.724;6.436;2023-04-24T07:02:45;22.00;;;9.20;;
52586;SDS011;38480;52.724;6.436;2023-04-24T07:05:11;20.97;;;8.47;;
52586;SDS011;38480;52.724;6.436;2023-04-24T07:07:37;20.43;;;10.43;;
52586;SDS011;38480;52.724;6.436;2023-04-24T07:10:05;30.80;;;11.47;;
52586;SDS011;38480;52.724;6.436;2023-04-24T07:12:31;40.77;;;12.57;;
52586;SDS011;38480;52.724;6.436;2023-04-24T07:14:57;24.67;;;10.33;;
52586;SDS011;38480;52.724;6.436;2023-04-24T07:17:24;27.87;;;12.27;;
52586;SDS011;38480;52.724;6.436;2023-04-24T07:19:50;22.83;;;11.07;;
52586;SDS011;38480;52.724;6.436;2023-04-24T07:22:17;37.37;;;12.50;;
52586;SDS011;38480;52.724;6.436;2023-04-24T07:24:43;23.77;;;11.53;;
52586;SDS011;38480;52.724;6.436;2023-04-24T07:27:09;33.67;;;12.60;;
52586;SDS011;38480;52.724;6.436;2023-04-24T07:29:36;31.33;;;12.10;;
52586;SDS011;38480;52.724;6.436;2023-04-24T07:32:03;31.07;;;12.47;;
52586;SDS011;38480;52.724;6.436;2023-04-24T07:34:29;36.50;;;12.13;;
52586;SDS011;38480;52.724;6.436;2023-04-24T07:36:55;29.53;;;11.00;;
52586;SDS011;38480;52.724;6.436;2023-04-24T07:39:21;28.53;;;12.03;;
52586;SDS011;38480;52.724;6.436;2023-04-24T07:41:47;28.37;;;10.93;;
52586;SDS011;38480;52.724;6.436;2023-04-24T07:44:13;21.37;;;9.93;;
52586;SDS011;38480;52.724;6.436;2023-04-24T07:46:40;38.83;;;11.67;;
52586;SDS011;38480;52.724;6.436;2023-04-24T07:49:06;17.73;;;8.97;;
52586;SDS011;38480;52.724;6.436;2023-04-24T07:51:32;19.77;;;9.17;;
52586;SDS011;38480;52.724;6.436;2023-04-24T07:54:03;21.93;;;10.33;;
52586;SDS011;38480;52.724;6.436;2023-04-24T07:56:29;19.67;;;9.73;;
52586;SDS011;38480;52.724;6.436;2023-04-24T07:58:56;20.00;;;9.93;;
52586;SDS011;38480;52.724;6.436;2023-04-24T08:01:22;19.93;;;8.27;;
52586;SDS011;38480;52.724;6.436;2023-04-24T08:03:48;23.23;;;8.73;;
52586;SDS011;38480;52.724;6.436;2023-04-24T08:06:14;17.63;;;7.57;;
52586;SDS011;38480;52.724;6.436;2023-04-24T08:08:40;12.67;;;6.70;;
52586;SDS011;38480;52.724;6.436;2023-04-24T08:11:06;13.03;;;6.57;;
52586;SDS011;38480;52.724;6.436;2023-04-24T08:13:33;15.00;;;6.50;;
52586;SDS011;38480;52.724;6.436;2023-04-24T08:15:59;22.93;;;9.47;;
52586;SDS011;38480;52.724;6.436;2023-04-24T08:18:25;28.00;;;10.67;;
52586;SDS011;38480;52.724;6.436;2023-04-24T08:20:51;34.10;;;13.20;;
52586;SDS011;38480;52.724;6.436;2023-04-24T08:23:17;33.27;;;12.33;;
52586;SDS011;38480;52.724;6.436;2023-04-24T08:25:43;36.43;;;14.07;;
52586;SDS011;38480;52.724;6.436;2023-04-24T08:28:09;38.67;;;15.43;;
52586;SDS011;38480;52.724;6.436;2023-04-24T08:30:36;35.60;;;15.73;;
52586;SDS011;38480;52.724;6.436;2023-04-24T08:33:03;54.93;;;20.40;;
52586;SDS011;38480;52.724;6.436;2023-04-24T08:35:29;40.10;;;18.40;;
52586;SDS011;38480;52.724;6.436;2023-04-24T08:37:55;42.23;;;17.47;;
52586;SDS011;38480;52.724;6.436;2023-04-24T08:40:22;49.57;;;20.47;;
52586;SDS011;38480;52.724;6.436;2023-04-24T08:42:53;76.73;;;25.33;;
52586;SDS011;38480;52.724;6.436;2023-04-24T08:45:21;47.23;;;21.40;;
52586;SDS011;38480;52.724;6.436;2023-04-24T08:47:47;78.53;;;27.17;;
52586;SDS011;38480;52.724;6.436;2023-04-24T08:50:14;70.97;;;26.03;;
52586;SDS011;38480;52.724;6.436;2023-04-24T08:52:41;54.37;;;25.80;;
52586;SDS011;38480;52.724;6.436;2023-04-24T08:55:08;93.57;;;31.90;;
52586;SDS011;38480;52.724;6.436;2023-04-24T08:57:34;102.33;;;34.47;;
52586;SDS011;38480;52.724;6.436;2023-04-24T09:00:01;101.07;;;33.97;;
52586;SDS011;38480;52.724;6.436;2023-04-24T09:02:28;70.63;;;28.47;;
52586;SDS011;38480;52.724;6.436;2023-04-24T09:04:55;72.83;;;29.47;;
52586;SDS011;38480;52.724;6.436;2023-04-24T09:07:22;82.07;;;30.67;;
52586;SDS011;38480;52.724;6.436;2023-04-24T09:09:51;50.77;;;23.07;;
52586;SDS011;38480;52.724;6.436;2023-04-24T09:12:17;43.90;;;22.37;;
52586;SDS011;38480;52.724;6.436;2023-04-24T09:14:44;76.30;;;27.60;;
52586;SDS011;38480;52.724;6.436;2023-04-24T09:17:11;55.87;;;24.67;;
52586;SDS011;38480;52.724;6.436;2023-04-24T09:19:37;45.60;;;21.70;;
52586;SDS011;38480;52.724;6.436;2023-04-24T09:22:07;80.00;;;28.07;;
52586;SDS011;38480;52.724;6.436;2023-04-24T09:24:33;102.23;;;35.10;;
52586;SDS011;38480;52.724;6.436;2023-04-24T09:27:00;68.77;;;28.93;;
52586;SDS011;38480;52.724;6.436;2023-04-24T09:29:26;32.43;;;20.43;;
52586;SDS011;38480;52.724;6.436;2023-04-24T09:31:53;61.37;;;25.13;;
52586;SDS011;38480;52.724;6.436;2023-04-24T09:34:26;41.73;;;20.67;;
52586;SDS011;38480;52.724;6.436;2023-04-24T09:36:53;30.60;;;18.13;;
52586;SDS011;38480;52.724;6.436;2023-04-24T09:39:20;45.57;;;22.73;;
52586;SDS011;38480;52.724;6.436;2023-04-24T09:41:53;41.07;;;18.47;;
52586;SDS011;38480;52.724;6.436;2023-04-24T09:44:24;52.47;;;22.10;;
52586;SDS011;38480;52.724;6.436;2023-04-24T09:46:55;36.67;;;19.57;;
52586;SDS011;38480;52.724;6.436;2023-04-24T09:49:22;44.47;;;20.23;;
52586;SDS011;38480;52.724;6.436;2023-04-24T09:51:49;48.27;;;21.20;;
52586;SDS011;38480;52.724;6.436;2023-04-24T09:54:16;27.33;;;15.00;;
52586;SDS011;38480;52.724;6.436;2023-04-24T09:56:43;31.37;;;14.23;;
52586;SDS011;38480;52.724;6.436;2023-04-24T09:59:10;32.67;;;16.57;;
52586;SDS011;38480;52.724;6.436;2023-04-24T10:01:36;42.27;;;15.87;;
52586;SDS011;38480;52.724;6.436;2023-04-24T10:04:03;42.73;;;17.23;;
52586;SDS011;38480;52.724;6.436;2023-04-24T10:06:33;27.73;;;15.00;;
52586;SDS011;38480;52.724;6.436;2023-04-24T10:08:59;23.60;;;11.80;;
52586;SDS011;38480;52.724;6.436;2023-04-24T10:11:28;20.17;;;9.80;;
52586;SDS011;38480;52.724;6.436;2023-04-24T10:13:55;23.20;;;10.23;;
52586;SDS011;38480;52.724;6.436;2023-04-24T10:16:22;15.33;;;8.83;;
52586;SDS011;38480;52.724;6.436;2023-04-24T10:18:49;16.87;;;7.57;;
52586;SDS011;38480;52.724;6.436;2023-04-24T10:21:16;11.77;;;6.20;;
52586;SDS011;38480;52.724;6.436;2023-04-24T10:23:42;24.80;;;7.07;;
52586;SDS011;38480;52.724;6.436;2023-04-24T10:26:10;13.73;;;5.43;;
52586;SDS011;38480;52.724;6.436;2023-04-24T10:28:43;21.53;;;6.53;;
52586;SDS011;38480;52.724;6.436;2023-04-24T10:31:10;13.20;;;5.67;;
52586;SDS011;38480;52.724;6.436;2023-04-24T10:33:37;22.73;;;6.60;;
52586;SDS011;38480;52.724;6.436;2023-04-24T10:36:06;17.93;;;5.80;;
52586;SDS011;38480;52.724;6.436;2023-04-24T10:38:32;21.80;;;5.80;;
52586;SDS011;38480;52.724;6.436;2023-04-24T10:41:09;18.03;;;4.43;;
52586;SDS011;38480;52.724;6.436;2023-04-24T10:43:40;14.40;;;5.13;;
52586;SDS011;38480;52.724;6.436;2023-04-24T10:46:07;14.10;;;4.90;;
52586;SDS011;38480;52.724;6.436;2023-04-24T10:48:35;18.00;;;5.17;;
52586;SDS011;38480;52.724;6.436;2023-04-24T10:51:01;23.63;;;5.90;;
52586;SDS011;38480;52.724;6.436;2023-04-24T10:53:29;15.37;;;4.93;;
52586;SDS011;38480;52.724;6.436;2023-04-24T10:58:49;19.00;;;6.03;;
52586;SDS011;38480;52.724;6.436;2023-04-24T11:01:27;17.90;;;4.83;;
52586;SDS011;38480;52.724;6.436;2023-04-24T11:03:54;15.23;;;4.67;;
52586;SDS011;38480;52.724;6.436;2023-04-24T11:06:34;12.07;;;4.40;;
52586;SDS011;38480;52.724;6.436;2023-04-24T11:09:04;10.43;;;4.30;;
52586;SDS011;38480;52.724;6.436;2023-04-24T11:11:31;20.37;;;4.10;;
52586;SDS011;38480;52.724;6.436;2023-04-24T11:16:28;14.13;;;3.83;;
52586;SDS011;38480;52.724;6.436;2023-04-24T11:19:17;17.53;;;5.43;;
52586;SDS011;38480;52.724;6.436;2023-04-24T11:22:03;14.77;;;3.50;;
52586;SDS011;38480;52.724;6.436;2023-04-24T11:24:31;23.10;;;4.27;;
52586;SDS011;38480;52.724;6.436;2023-04-24T11:29:39;15.10;;;3.80;;
52586;SDS011;38480;52.724;6.436;2023-04-24T11:34:51;11.87;;;2.97;;
52586;SDS011;38480;52.724;6.436;2023-04-24T11:37:18;8.53;;;2.80;;
52586;SDS011;38480;52.724;6.436;2023-04-24T11:39:44;9.50;;;2.53;;
52586;SDS011;38480;52.724;6.436;2023-04-24T11:42:13;8.47;;;2.40;;
52586;SDS011;38480;52.724;6.436;2023-04-24T11:44:40;9.30;;;2.67;;
52586;SDS011;38480;52.724;6.436;2023-04-24T11:47:07;14.50;;;2.50;;
52586;SDS011;38480;52.724;6.436;2023-04-24T11:49:33;11.07;;;2.27;;
52586;SDS011;38480;52.724;6.436;2023-04-24T11:52:00;11.30;;;2.70;;
52586;SDS011;38480;52.724;6.436;2023-04-24T11:54:26;9.90;;;2.50;;
52586;SDS011;38480;52.724;6.436;2023-04-24T11:56:53;7.03;;;2.97;;
52586;SDS011;38480;52.724;6.436;2023-04-24T11:59:19;12.90;;;2.63;;
52586;SDS011;38480;52.724;6.436;2023-04-24T12:01:45;6.23;;;1.97;;
52586;SDS011;38480;52.724;6.436;2023-04-24T12:04:12;8.70;;;1.90;;
52586;SDS011;38480;52.724;6.436;2023-04-24T12:06:38;13.10;;;3.00;;
52586;SDS011;38480;52.724;6.436;2023-04-24T12:09:04;17.20;;;3.60;;
52586;SDS011;38480;52.724;6.436;2023-04-24T12:11:31;6.07;;;1.83;;
52586;SDS011;38480;52.724;6.436;2023-04-24T12:13:57;8.23;;;2.00;;
52586;SDS011;38480;52.724;6.436;2023-04-24T12:16:23;4.50;;;1.67;;
52586;SDS011;38480;52.724;6.436;2023-04-24T12:18:51;10.50;;;4.23;;
52586;SDS011;38480;52.724;6.436;2023-04-24T12:21:18;7.50;;;1.70;;
52586;SDS011;38480;52.724;6.436;2023-04-24T12:23:45;6.17;;;1.40;;
52586;SDS011;38480;52.724;6.436;2023-04-24T12:26:12;6.50;;;2.30;;
52586;SDS011;38480;52.724;6.436;2023-04-24T12:28:41;6.10;;;1.80;;
52586;SDS011;38480;52.724;6.436;2023-04-24T12:31:07;7.00;;;1.50;;
52586;SDS011;38480;52.724;6.436;2023-04-24T12:33:34;8.43;;;1.60;;
52586;SDS011;38480;52.724;6.436;2023-04-24T12:36:00;9.30;;;1.60;;
52586;SDS011;38480;52.724;6.436;2023-04-24T12:38:27;3.03;;;0.73;;
52586;SDS011;38480;52.724;6.436;2023-04-24T12:41:09;6.87;;;1.20;;
52586;SDS011;38480;52.724;6.436;2023-04-24T12:43:35;3.97;;;1.00;;
52586;SDS011;38480;52.724;6.436;2023-04-24T12:46:02;2.57;;;0.90;;
52586;SDS011;38480;52.724;6.436;2023-04-24T12:48:28;3.83;;;0.97;;
52586;SDS011;38480;52.724;6.436;2023-04-24T12:50:58;4.03;;;0.87;;
52586;SDS011;38480;52.724;6.436;2023-04-24T12:53:28;9.15;;;1.23;;
52586;SDS011;38480;52.724;6.436;2023-04-24T12:55:56;5.13;;;0.97;;
52586;SDS011;38480;52.724;6.436;2023-04-24T12:58:22;4.40;;;1.10;;
52586;SDS011;38480;52.724;6.436;2023-04-24T13:00:48;10.30;;;1.40;;
52586;SDS011;38480;52.724;6.436;2023-04-24T13:03:14;6.17;;;1.23;;
52586;SDS011;38480;52.724;6.436;2023-04-24T13:05:41;7.80;;;1.70;;
52586;SDS011;38480;52.724;6.436;2023-04-24T13:08:07;8.07;;;1.97;;
52586;SDS011;38480;52.724;6.436;2023-04-24T13:10:34;8.77;;;1.80;;
52586;SDS011;38480;52.724;6.436;2023-04-24T13:13:00;11.73;;;1.83;;
52586;SDS011;38480;52.724;6.436;2023-04-24T13:15:26;12.40;;;2.10;;
52586;SDS011;38480;52.724;6.436;2023-04-24T13:17:52;11.57;;;1.87;;
52586;SDS011;38480;52.724;6.436;2023-04-24T13:20:18;5.97;;;1.47;;
52586;SDS011;38480;52.724;6.436;2023-04-24T13:22:44;7.40;;;1.70;;
52586;SDS011;38480;52.724;6.436;2023-04-24T13:25:10;5.23;;;1.20;;
52586;SDS011;38480;52.724;6.436;2023-04-24T13:27:39;7.20;;;1.50;;
52586;SDS011;38480;52.724;6.436;2023-04-24T13:30:06;6.33;;;1.47;;
52586;SDS011;38480;52.724;6.436;2023-04-24T13:32:32;9.37;;;1.30;;
52586;SDS011;38480;52.724;6.436;2023-04-24T13:35:00;5.27;;;1.07;;
52586;SDS011;38480;52.724;6.436;2023-04-24T13:37:26;5.17;;;1.00;;
52586;SDS011;38480;52.724;6.436;2023-04-24T13:39:52;11.47;;;0.97;;
52586;SDS011;38480;52.724;6.436;2023-04-24T13:42:18;8.87;;;1.10;;
52586;SDS011;38480;52.724;6.436;2023-04-24T13:44:45;5.23;;;0.83;;
52586;SDS011;38480;52.724;6.436;2023-04-24T13:47:11;6.50;;;0.97;;
52586;SDS011;38480;52.724;6.436;2023-04-24T13:49:37;4.20;;;1.40;;
52586;SDS011;38480;52.724;6.436;2023-04-24T13:52:03;7.90;;;1.40;;
52586;SDS011;38480;52.724;6.436;2023-04-24T13:54:30;9.53;;;1.53;;
52586;SDS011;38480;52.724;6.436;2023-04-24T13:56:57;6.47;;;1.20;;
52586;SDS011;38480;52.724;6.436;2023-04-24T13:59:23;12.47;;;2.43;;
52586;SDS011;38480;52.724;6.436;2023-04-24T14:01:50;7.33;;;1.80;;
52586;SDS011;38480;52.724;6.436;2023-04-24T14:04:16;7.80;;;1.83;;
52586;SDS011;38480;52.724;6.436;2023-04-24T14:06:42;10.13;;;1.80;;
52586;SDS011;38480;52.724;6.436;2023-04-24T14:09:09;14.43;;;2.60;;
52586;SDS011;38480;52.724;6.436;2023-04-24T14:11:35;10.43;;;2.57;;
52586;SDS011;38480;52.724;6.436;2023-04-24T14:14:01;18.10;;;2.43;;
52586;SDS011;38480;52.724;6.436;2023-04-24T14:16:28;10.37;;;2.53;;
52586;SDS011;38480;52.724;6.436;2023-04-24T14:18:55;15.63;;;2.43;;
52586;SDS011;38480;52.724;6.436;2023-04-24T14:21:21;14.57;;;2.93;;
52586;SDS011;38480;52.724;6.436;2023-04-24T14:23:47;12.27;;;2.67;;
52586;SDS011;38480;52.724;6.436;2023-04-24T14:26:13;9.37;;;2.50;;
52586;SDS011;38480;52.724;6.436;2023-04-24T14:28:39;9.13;;;2.37;;
52586;SDS011;38480;52.724;6.436;2023-04-24T14:31:05;15.17;;;3.23;;
52586;SDS011;38480;52.724;6.436;2023-04-24T14:33:32;7.47;;;2.70;;
52586;SDS011;38480;52.724;6.436;2023-04-24T14:35:58;12.77;;;3.60;;
52586;SDS011;38480;52.724;6.436;2023-04-24T14:38:24;11.13;;;3.27;;
52586;SDS011;38480;52.724;6.436;2023-04-24T14:40:50;12.30;;;2.83;;
52586;SDS011;38480;52.724;6.436;2023-04-24T14:43:16;13.97;;;2.60;;